Time;durP1;ratioP1;P1;durP2;ratioP2;P2;SDS_P1;SDS_P2;PMS_P1;PMS_P2;Temp;Humidity;BMP_temperature;BMP_pressure;BME280_temperature;BME280_humidity;BME280_pressure;Samples;Min_cycle;Max_cycle;Signal;HPM_P1;HPM_P2
2021/09/29 00:02:21;;;;;;;4.53;3.87;;;11.80;99.90;11.00;97132.00;;;;5126318;27;20602;-64
2021/09/29 00:05:11;;;;;;;11.87;4.50;;;11.60;99.90;11.20;97130.00;;;;5116091;27;20202;-64
2021/09/29 00:08:00;;;;;;;6.00;4.50;;;11.50;99.90;11.20;97127.00;;;;5113713;27;20206;-64
2021/09/29 00:10:49;;;;;;;5.43;4.13;;;11.60;99.90;11.20;97127.00;;;;5125495;27;20228;-63
2021/09/29 00:13:38;;;;;;;4.70;3.67;;;11.50;99.90;11.10;97114.00;;;;5126712;27;20214;-64
2021/09/29 00:16:27;;;;;;;4.53;4.03;;;11.40;99.90;10.80;97131.00;;;;5116534;27;20213;-64
2021/09/29 00:19:17;;;;;;;4.63;3.90;;;11.20;99.90;10.70;97124.00;;;;5126148;27;20696;-64
2021/09/29 00:22:06;;;;;;;6.80;4.70;;;11.30;99.90;11.00;97115.00;;;;5123455;27;20236;-64
2021/09/29 00:24:55;;;;;;;7.30;5.47;;;11.30;99.90;11.20;97110.00;;;;5118541;27;20210;-64
2021/09/29 00:27:45;;;;;;;5.30;4.43;;;11.30;99.90;11.30;97112.00;;;;5116542;27;20208;-64
2021/09/29 00:30:39;;;;;;;4.63;4.23;;;11.30;99.90;11.30;97111.00;;;;5119756;27;20585;-64
2021/09/29 00:33:28;;;;;;;4.67;4.17;;;11.40;99.90;11.30;97108.00;;;;5108833;28;20217;-63
2021/09/29 00:36:18;;;;;;;4.43;3.93;;;11.40;99.90;11.20;97104.00;;;;5112173;27;20209;-64
2021/09/29 00:39:07;;;;;;;7.60;4.77;;;11.40;99.90;11.10;97093.00;;;;5115405;28;20205;-64
2021/09/29 00:41:57;;;;;;;5.23;4.23;;;11.40;99.90;11.10;97105.00;;;;5119811;28;20237;-64
2021/09/29 00:44:46;;;;;;;6.27;5.03;;;11.40;99.90;11.20;97106.00;;;;5110388;28;20682;-64
2021/09/29 00:47:35;;;;;;;5.17;4.50;;;11.40;99.90;11.10;97100.00;;;;5116972;28;20220;-64
2021/09/29 00:50:24;;;;;;;5.37;4.80;;;11.40;99.90;11.10;97099.00;;;;5113859;28;20684;-64
2021/09/29 00:53:15;;;;;;;7.50;4.87;;;11.40;99.90;11.20;97103.00;;;;5112533;28;20224;-64
2021/09/29 00:56:05;;;;;;;5.93;5.00;;;11.40;99.90;11.40;97097.00;;;;5125614;28;20232;-64
2021/09/29 00:58:54;;;;;;;9.60;5.07;;;11.40;99.90;11.50;97100.00;;;;5113916;28;20221;-64
2021/09/29 01:01:45;;;;;;;5.27;4.60;;;11.50;99.90;11.60;97097.00;;;;5115086;28;20221;-64
2021/09/29 01:04:34;;;;;;;7.67;5.13;;;11.50;99.90;11.50;97092.00;;;;5120411;28;20576;-64
2021/09/29 01:07:30;;;;;;;4.47;4.07;;;11.60;99.90;10.90;97081.00;;;;5119263;28;20236;-65
2021/09/29 01:10:32;;;;;;;4.77;4.33;;;11.50;99.90;11.20;97085.00;;;;5118046;28;20833;-64
2021/09/29 01:13:31;;;;;;;5.63;4.23;;;11.40;99.90;11.20;97082.00;;;;5120743;27;20197;-64
2021/09/29 01:16:22;;;;;;;5.83;4.73;;;11.40;99.90;11.10;97084.00;;;;5112598;27;20198;-64
2021/09/29 01:19:44;;;;;;;4.80;4.27;;;11.30;99.90;11.30;97080.00;;;;5127176;27;20580;-64
2021/09/29 01:23:03;;;;;;;5.67;5.07;;;11.40;99.90;11.40;97083.00;;;;5127909;27;20232;-63
2021/09/29 01:26:09;;;;;;;7.33;4.83;;;11.40;99.90;11.30;97069.00;;;;5119033;27;20225;-64
2021/09/29 01:29:04;;;;;;;6.43;4.90;;;11.40;99.90;11.20;97063.00;;;;5113311;27;20202;-64
2021/09/29 01:31:54;;;;;;;6.30;5.27;;;11.40;99.90;11.20;97063.00;;;;5126916;27;20229;-64
2021/09/29 01:34:44;;;;;;;6.10;4.90;;;11.40;99.90;11.20;97057.00;;;;5129127;27;20198;-63
2021/09/29 01:37:33;;;;;;;7.40;5.07;;;11.40;99.90;11.30;97053.00;;;;5120612;27;20213;-64
2021/09/29 01:40:22;;;;;;;5.40;4.50;;;11.40;99.90;11.20;97053.00;;;;5115460;27;20198;-65
2021/09/29 01:43:12;;;;;;;6.10;4.10;;;11.40;99.90;11.20;97044.00;;;;5131096;27;20210;-64
2021/09/29 01:46:01;;;;;;;6.73;5.07;;;11.40;99.90;11.30;97049.00;;;;5128022;27;20200;-64
2021/09/29 01:49:02;;;;;;;7.17;5.00;;;11.40;99.90;11.40;97042.00;;;;5118178;27;20204;-64
2021/09/29 01:51:53;;;;;;;13.40;5.53;;;11.50;99.90;11.50;97041.00;;;;5127236;27;20226;-64
2021/09/29 01:54:47;;;;;;;5.73;4.50;;;11.50;99.90;11.30;97040.00;;;;5129612;27;20210;-64
2021/09/29 01:57:37;;;;;;;6.80;4.50;;;11.50;99.90;10.80;97043.00;;;;5128986;27;20240;-64
2021/09/29 02:00:28;;;;;;;4.87;4.37;;;11.40;99.90;10.80;97035.00;;;;5115010;27;20199;-63
2021/09/29 02:03:21;;;;;;;6.33;4.57;;;11.30;99.90;11.10;97037.00;;;;5114149;27;20251;-64
2021/09/29 02:06:10;;;;;;;9.87;4.90;;;11.30;99.90;11.20;97039.00;;;;5116000;27;20668;-64
2021/09/29 02:08:59;;;;;;;6.13;4.07;;;11.40;99.90;10.90;97030.00;;;;5115800;27;20209;-65
2021/09/29 02:11:49;;;;;;;7.57;4.80;;;11.40;99.90;10.80;97029.00;;;;5128185;27;20221;-64
2021/09/29 02:14:39;;;;;;;6.00;5.37;;;11.30;99.90;10.60;97025.00;;;;5111848;27;20551;-64
2021/09/29 02:17:29;;;;;;;5.17;4.67;;;11.20;99.90;10.70;97025.00;;;;5127609;27;20729;-64
2021/09/29 02:20:18;;;;;;;4.40;4.00;;;11.10;99.90;10.60;97021.00;;;;5128623;27;20217;-64
2021/09/29 02:23:07;;;;;;;5.20;4.70;;;11.10;99.90;10.80;97035.00;;;;5129269;27;20592;-65
2021/09/29 02:25:56;;;;;;;7.53;4.80;;;11.00;99.90;10.80;97023.00;;;;5128931;27;20583;-64
2021/09/29 02:28:46;;;;;;;6.90;5.43;;;11.00;99.90;10.60;97016.00;;;;5128658;27;20212;-64
2021/09/29 02:31:35;;;;;;;7.43;4.93;;;11.00;99.90;10.60;97012.00;;;;5127628;27;20210;-64
2021/09/29 02:34:25;;;;;;;8.60;4.77;;;11.00;99.90;10.70;97008.00;;;;5128443;27;20194;-64
2021/09/29 02:37:15;;;;;;;9.07;5.20;;;11.00;99.90;10.80;97010.00;;;;5117679;27;20688;-64
2021/09/29 02:40:06;;;;;;;6.00;5.07;;;11.00;99.90;10.90;97013.00;;;;5127970;27;20209;-64
2021/09/29 02:42:55;;;;;;;7.80;5.23;;;11.10;99.90;10.80;97013.00;;;;5128877;27;20198;-64
2021/09/29 02:45:45;;;;;;;7.00;5.83;;;11.10;99.90;10.70;97011.00;;;;5126640;27;20210;-64
2021/09/29 02:48:34;;;;;;;8.37;5.03;;;11.10;99.90;10.60;97017.00;;;;5116109;27;20229;-64
2021/09/29 02:51:24;;;;;;;7.73;6.77;;;11.00;99.90;10.70;97004.00;;;;5113190;27;20241;-64
2021/09/29 02:54:13;;;;;;;7.17;5.60;;;11.00;99.90;10.90;97010.00;;;;5126753;27;20205;-64
2021/09/29 02:57:02;;;;;;;13.37;5.87;;;11.10;99.90;10.60;97006.00;;;;5116695;27;20205;-64
2021/09/29 02:59:51;;;;;;;5.27;4.43;;;11.00;99.90;10.60;97005.00;;;;5107531;27;20536;-65
2021/09/29 03:02:40;;;;;;;10.13;5.47;;;11.00;99.90;10.80;97001.00;;;;5118621;27;20221;-65
2021/09/29 03:05:29;;;;;;;7.07;5.43;;;11.00;99.90;10.90;96996.00;;;;5121430;27;20208;-64
2021/09/29 03:08:19;;;;;;;8.53;6.03;;;11.00;99.90;10.90;96996.00;;;;5117768;27;20230;-64
2021/09/29 03:11:09;;;;;;;11.57;5.63;;;11.10;99.90;11.00;97001.00;;;;5126963;27;20229;-64
2021/09/29 03:13:58;;;;;;;5.67;5.17;;;11.10;99.90;10.90;96990.00;;;;5127535;27;20212;-64
2021/09/29 03:16:47;;;;;;;10.13;5.50;;;11.10;99.90;10.80;97000.00;;;;5126475;27;20209;-65
2021/09/29 03:19:37;;;;;;;4.47;4.07;;;11.10;99.90;10.70;97006.00;;;;5127585;27;20206;-64
2021/09/29 03:22:26;;;;;;;5.23;4.73;;;11.10;99.90;10.60;96996.00;;;;5113536;27;20222;-65
2021/09/29 03:25:16;;;;;;;7.33;5.07;;;11.00;99.90;10.50;96989.00;;;;5127548;27;20205;-64
2021/09/29 03:28:06;;;;;;;11.80;5.83;;;10.90;99.90;10.30;97001.00;;;;5127794;27;20221;-65
2021/09/29 03:30:55;;;;;;;7.30;5.53;;;10.80;99.90;10.20;97002.00;;;;5116793;27;20687;-64
2021/09/29 03:33:44;;;;;;;8.70;5.30;;;10.70;99.90;10.20;96985.00;;;;5122062;27;20221;-65
2021/09/29 03:36:33;;;;;;;6.10;4.27;;;10.70;99.90;10.10;96985.00;;;;5108947;27;20625;-64
2021/09/29 03:39:22;;;;;;;5.63;5.03;;;10.60;99.90;10.10;96980.00;;;;5126741;27;20583;-65
2021/09/29 03:42:12;;;;;;;10.67;5.13;;;10.60;99.90;10.20;96989.00;;;;5127814;27;20221;-64
2021/09/29 03:45:01;;;;;;;9.83;5.50;;;10.60;99.90;10.20;96982.00;;;;5126223;27;20660;-64
2021/09/29 03:47:50;;;;;;;6.23;4.97;;;10.60;99.90;10.30;96988.00;;;;5113264;27;20223;-65
2021/09/29 03:50:39;;;;;;;6.80;5.33;;;10.60;99.90;10.40;96981.00;;;;5125351;27;20210;-64
2021/09/29 03:53:28;;;;;;;7.63;6.63;;;10.70;99.90;10.60;96979.00;;;;5107646;28;20708;-64
2021/09/29 03:56:17;;;;;;;7.37;5.70;;;10.70;99.90;10.60;96982.00;;;;5112180;27;20198;-65
2021/09/29 03:59:07;;;;;;;8.07;5.40;;;10.80;99.90;10.60;96981.00;;;;5126759;27;20205;-64
2021/09/29 04:01:56;;;;;;;8.10;5.47;;;10.80;99.90;10.70;96988.00;;;;5126654;27;20716;-65
2021/09/29 04:04:45;;;;;;;6.90;5.70;;;10.90;99.90;10.60;96981.00;;;;5116224;27;20239;-64
2021/09/29 04:07:34;;;;;;;9.80;5.83;;;10.90;99.90;10.60;96978.00;;;;5119814;27;20232;-65
2021/09/29 04:10:23;;;;;;;6.77;5.37;;;10.90;99.90;10.50;96979.00;;;;5118673;27;20209;-64
2021/09/29 04:13:12;;;;;;;5.93;5.27;;;10.90;99.90;10.50;96988.00;;;;5127424;27;20202;-64
2021/09/29 04:16:02;;;;;;;8.63;4.97;;;10.80;99.90;10.70;96987.00;;;;5111227;27;20212;-64
2021/09/29 04:18:51;;;;;;;7.03;5.97;;;10.80;99.90;10.80;96992.00;;;;5127030;27;20658;-65
2021/09/29 04:21:40;;;;;;;6.97;6.00;;;10.90;99.90;11.00;96997.00;;;;5126241;27;20233;-65
2021/09/29 04:24:30;;;;;;;9.73;5.60;;;11.00;99.90;11.00;96978.00;;;;5115462;27;20209;-64
2021/09/29 04:27:19;;;;;;;7.87;6.10;;;11.00;99.90;10.90;96987.00;;;;5106053;28;20233;-64
2021/09/29 04:30:09;;;;;;;8.67;5.50;;;11.00;99.90;10.80;96989.00;;;;5113988;27;20206;-64
2021/09/29 04:33:00;;;;;;;6.10;4.90;;;11.00;99.90;10.60;96983.00;;;;5118274;27;20194;-63
2021/09/29 04:35:49;;;;;;;6.83;5.20;;;11.00;99.90;10.50;96979.00;;;;5106757;28;20217;-63
2021/09/29 04:38:38;;;;;;;6.83;5.37;;;10.90;99.90;10.40;96982.00;;;;5126359;27;20685;-63
2021/09/29 04:41:27;;;;;;;7.40;5.90;;;10.90;99.90;10.30;96989.00;;;;5125177;28;20222;-63
2021/09/29 04:44:16;;;;;;;6.00;5.40;;;10.80;99.90;10.20;96990.00;;;;5125762;28;20202;-65
2021/09/29 04:47:05;;;;;;;7.00;5.60;;;10.70;99.90;10.40;96991.00;;;;5115067;27;20205;-65
2021/09/29 04:49:55;;;;;;;7.53;5.87;;;10.70;99.90;10.40;96989.00;;;;5130274;27;20667;-65
2021/09/29 04:52:44;;;;;;;7.00;5.73;;;10.70;99.90;10.40;96985.00;;;;5129700;27;20233;-65
2021/09/29 04:55:33;;;;;;;5.97;5.03;;;10.70;99.90;10.60;96984.00;;;;5130231;27;20201;-64
2021/09/29 04:58:22;;;;;;;6.70;5.77;;;10.70;99.90;10.50;96996.00;;;;5123007;27;20199;-65
2021/09/29 05:01:11;;;;;;;6.60;6.00;;;10.70;99.90;10.70;96992.00;;;;5121638;27;20223;-64
2021/09/29 05:04:00;;;;;;;8.50;5.83;;;10.80;99.90;10.80;96991.00;;;;5114459;27;20202;-65
2021/09/29 05:06:52;;;;;;;6.17;5.57;;;10.80;99.90;10.60;96996.00;;;;5123985;27;20683;-65
2021/09/29 05:09:40;;;;;;;9.03;5.53;;;10.90;99.90;10.70;96992.00;;;;5112999;27;20225;-65
2021/09/29 05:12:32;;;;;;;9.60;6.07;;;10.90;99.90;10.80;96997.00;;;;5123003;27;20222;-65
2021/09/29 05:15:21;;;;;;;7.60;5.50;;;10.90;99.90;10.80;97000.00;;;;5130185;27;20205;-65
2021/09/29 05:18:10;;;;;;;6.27;5.40;;;10.50;99.90;10.60;96992.00;;;;5119673;27;20570;-66
2021/09/29 05:20:59;;;;;;;7.87;6.00;;;10.90;99.90;10.50;96988.00;;;;5129547;27;20228;-65
2021/09/29 05:23:50;;;;;;;7.40;6.03;;;10.90;99.90;10.60;97000.00;;;;5125188;27;20203;-65
2021/09/29 05:26:39;;;;;;;7.20;5.40;;;10.90;99.90;10.90;97002.00;;;;5116492;27;20199;-67
2021/09/29 05:29:28;;;;;;;8.13;6.53;;;10.90;99.90;10.80;97000.00;;;;5109126;27;20322;-66
2021/09/29 05:32:18;;;;;;;8.77;5.47;;;11.00;99.90;10.60;96996.00;;;;5123690;27;20715;-66
2021/09/29 05:35:08;;;;;;;8.60;6.33;;;10.90;99.90;10.80;96998.00;;;;5121369;27;20740;-66
2021/09/29 05:37:57;;;;;;;7.33;5.33;;;10.90;99.90;11.10;96998.00;;;;5114390;27;20699;-66
2021/09/29 05:40:47;;;;;;;7.33;6.00;;;11.00;99.90;11.20;97003.00;;;;5118313;27;20209;-66
2021/09/29 05:43:36;;;;;;;6.47;5.87;;;11.10;99.90;11.20;97008.00;;;;5123033;27;20202;-66
2021/09/29 05:46:25;;;;;;;5.77;5.03;;;11.20;99.90;11.40;96992.00;;;;5124022;27;20213;-66
2021/09/29 05:49:14;;;;;;;6.03;5.17;;;11.30;99.90;11.30;96999.00;;;;5129118;27;21162;-65
2021/09/29 05:52:04;;;;;;;9.73;5.70;;;11.40;99.90;11.20;96996.00;;;;5117279;27;20244;-65
2021/09/29 05:54:53;;;;;;;6.40;5.57;;;11.40;99.90;11.00;96992.00;;;;5118849;27;20695;-65
2021/09/29 05:57:43;;;;;;;7.40;5.80;;;11.40;99.90;11.30;97001.00;;;;5119793;27;20205;-65
2021/09/29 06:00:32;;;;;;;5.77;5.13;;;11.40;99.90;11.60;96999.00;;;;5121035;27;20230;-65
2021/09/29 06:03:21;;;;;;;7.50;5.87;;;11.50;99.90;11.70;96998.00;;;;5116031;27;20603;-66
2021/09/29 06:06:10;;;;;;;6.43;5.80;;;11.60;99.90;11.70;96993.00;;;;5114930;27;20198;-66
2021/09/29 06:08:59;;;;;;;6.10;5.50;;;11.70;99.90;11.80;96998.00;;;;5115887;27;20229;-65
2021/09/29 06:11:48;;;;;;;7.23;5.23;;;11.80;99.90;11.70;96999.00;;;;5126479;27;20225;-67
2021/09/29 06:14:40;;;;;;;8.10;6.27;;;11.80;99.90;11.80;97004.00;;;;5125127;27;20201;-67
2021/09/29 06:17:37;;;;;;;6.60;5.13;;;11.90;99.90;11.90;96999.00;;;;5123209;27;20210;-67
2021/09/29 06:20:27;;;;;;;7.57;5.30;;;11.90;99.90;11.90;97007.00;;;;5124458;27;20567;-66
2021/09/29 06:23:19;;;;;;;5.90;5.30;;;12.00;99.90;11.90;97011.00;;;;5125669;27;20194;-66
2021/09/29 06:26:09;;;;;;;7.53;6.20;;;12.00;99.90;11.90;97013.00;;;;5124175;27;20672;-66
2021/09/29 06:28:58;;;;;;;7.00;5.30;;;12.10;99.90;11.80;97009.00;;;;5114421;27;20213;-68
2021/09/29 06:31:48;;;;;;;7.83;5.90;;;12.00;99.90;11.90;97009.00;;;;5115591;27;20581;-66
2021/09/29 06:34:37;;;;;;;6.77;6.07;;;12.10;99.90;12.00;97017.00;;;;5118214;27;20205;-66
2021/09/29 06:37:27;;;;;;;6.10;5.50;;;12.10;99.90;12.20;97024.00;;;;5123542;27;20676;-66
2021/09/29 06:40:19;;;;;;;6.03;5.43;;;12.20;99.90;12.20;97031.00;;;;5114502;27;20194;-66
2021/09/29 06:43:08;;;;;;;6.40;4.83;;;12.30;99.90;12.30;97026.00;;;;5128932;27;20205;-66
2021/09/29 06:45:57;;;;;;;6.93;5.00;;;;;12.40;97022.00;;;;5126448;27;20575;-66
2021/09/29 06:48:48;;;;;;;6.37;5.73;;;12.40;99.90;12.50;97031.00;;;;5118623;27;20222;-66
2021/09/29 06:51:38;;;;;;;7.03;6.33;;;12.50;99.90;12.70;97027.00;;;;5127218;27;20312;-66
2021/09/29 06:54:27;;;;;;;6.37;5.50;;;12.60;99.90;12.90;97036.00;;;;5121708;27;20203;-66
2021/09/29 06:57:17;;;;;;;8.70;6.10;;;12.80;99.90;13.20;97036.00;;;;5116765;27;20190;-66
2021/09/29 07:00:09;;;;;;;7.93;5.63;;;12.80;99.90;13.30;97035.00;;;;5119108;27;20613;-66
2021/09/29 07:02:58;;;;;;;7.13;5.67;;;13.00;99.90;13.50;97038.00;;;;5121221;27;20226;-66
2021/09/29 07:05:49;;;;;;;7.67;5.13;;;13.20;99.90;13.60;97042.00;;;;5115722;27;20205;-66
2021/09/29 07:08:38;;;;;;;6.73;5.97;;;13.30;99.90;13.70;97038.00;;;;5123773;27;20252;-66
2021/09/29 07:11:27;;;;;;;13.73;7.20;;;13.50;99.90;13.80;97038.00;;;;5116803;27;20277;-66
2021/09/29 07:14:16;;;;;;;9.13;5.30;;;13.60;99.90;13.90;97034.00;;;;5114009;27;20202;-66
2021/09/29 07:17:06;;;;;;;6.23;5.50;;;13.70;99.90;13.90;97039.00;;;;5127994;27;20213;-66
2021/09/29 07:19:57;;;;;;;10.27;6.20;;;13.80;99.90;14.10;97041.00;;;;5127185;27;20201;-66
2021/09/29 07:22:47;;;;;;;7.43;5.73;;;13.80;99.90;14.40;97043.00;;;;5128394;27;20226;-66
2021/09/29 07:25:37;;;;;;;11.27;6.73;;;14.00;99.90;14.40;97042.00;;;;5127076;27;20560;-66
2021/09/29 07:28:26;;;;;;;7.77;6.10;;;14.20;99.90;14.40;97045.00;;;;5112535;27;20207;-66
2021/09/29 07:31:15;;;;;;;10.47;7.43;;;14.30;99.90;14.40;97052.00;;;;5122433;27;20696;-66
2021/09/29 07:34:06;;;;;;;10.30;6.33;;;14.30;99.90;14.30;97053.00;;;;5109708;27;20225;-66
2021/09/29 07:36:55;;;;;;;14.47;6.53;;;14.30;99.90;14.30;97047.00;;;;5113153;27;20208;-66
2021/09/29 07:39:46;;;;;;;7.67;6.07;;;14.10;99.90;14.50;97053.00;;;;5124046;27;20198;-66
2021/09/29 07:42:35;;;;;;;15.00;7.03;;;14.50;99.90;14.70;97053.00;;;;5119677;27;20726;-66
2021/09/29 07:45:25;;;;;;;12.23;6.47;;;14.50;99.90;14.80;97050.00;;;;5127392;27;20608;-66
2021/09/29 07:48:14;;;;;;;8.47;6.37;;;14.60;99.90;14.90;97063.00;;;;5125768;27;20224;-67
2021/09/29 07:51:04;;;;;;;13.27;6.77;;;14.70;99.90;15.00;97059.00;;;;5126372;27;20228;-66
2021/09/29 07:53:52;;;;;;;9.90;7.43;;;14.90;99.90;15.30;97062.00;;;;5126727;27;20673;-67
2021/09/29 07:56:43;;;;;;;12.47;6.97;;;15.00;99.90;15.40;97053.00;;;;5117479;27;20217;-66
2021/09/29 07:59:32;;;;;;;10.53;6.93;;;15.10;99.90;15.60;97051.00;;;;5122602;27;20206;-69
2021/09/29 08:02:22;;;;;;;11.17;6.80;;;15.30;99.90;16.10;97051.00;;;;5113483;27;20226;-68
2021/09/29 08:05:12;;;;;;;8.87;6.20;;;15.40;99.90;16.10;97050.00;;;;5107116;27;20206;-64
2021/09/29 08:08:02;;;;;;;15.83;7.00;;;15.70;99.90;16.40;97053.00;;;;5114395;27;20198;-67
2021/09/29 08:10:51;;;;;;;10.93;7.77;;;15.90;99.90;16.70;97050.00;;;;5111493;27;20237;-68
2021/09/29 08:13:41;;;;;;;14.40;7.77;;;16.00;99.90;16.70;97051.00;;;;5125865;27;20198;-66
2021/09/29 08:16:30;;;;;;;10.20;7.40;;;16.30;99.90;16.90;97052.00;;;;5126766;27;20216;-66
2021/09/29 08:19:19;;;;;;;12.53;7.63;;;16.40;99.90;17.00;97059.00;;;;5113707;27;20575;-66
2021/09/29 08:22:10;;;;;;;16.73;7.47;;;16.60;99.90;17.20;97052.00;;;;5126345;27;20229;-66
2021/09/29 08:25:11;;;;;;;10.37;6.83;;;16.70;99.90;17.30;97059.00;;;;5125814;27;20205;-66
2021/09/29 08:28:10;;;;;;;16.70;6.60;;;16.80;99.90;17.40;97057.00;;;;5126621;27;20708;-66
2021/09/29 08:31:05;;;;;;;12.87;6.97;;;16.90;99.90;17.50;97060.00;;;;5115052;27;20233;-66
2021/09/29 08:37:02;;;;;;;11.10;6.73;;;17.10;99.90;17.70;97052.00;;;;5112526;27;20349;-66
2021/09/29 08:39:57;;;;;;;18.27;7.20;;;17.30;99.90;17.90;97060.00;;;;5123708;27;20209;-65
2021/09/29 08:43:00;;;;;;;15.80;6.53;;;17.40;99.90;17.80;97063.00;;;;5121711;27;20214;-65
2021/09/29 08:45:53;;;;;;;12.03;6.30;;;17.50;99.90;18.10;97064.00;;;;5114784;28;20310;-65
2021/09/29 08:48:56;;;;;;;12.90;7.40;;;17.60;99.90;18.30;97057.00;;;;5112618;28;20222;-66
2021/09/29 09:16:49;;;;;;;11.73;6.60;;;18.80;99.90;19.60;97066.00;;;;5119968;28;20218;-66
2021/09/29 09:19:39;;;;;;;8.53;6.13;;;19.00;99.90;20.00;97066.00;;;;5125577;28;20582;-66
2021/09/29 09:22:35;;;;;;;11.67;6.40;;;19.20;99.90;20.20;97054.00;;;;5118260;28;20222;-66
2021/09/29 09:25:38;;;;;;;8.83;6.37;;;19.40;99.90;20.50;97066.00;;;;5123782;28;20205;-66
2021/09/29 09:28:29;;;;;;;14.83;7.07;;;19.70;99.90;20.60;97059.00;;;;5115265;28;20213;-66
2021/09/29 09:31:20;;;;;;;11.00;7.87;;;19.80;99.90;20.70;97054.00;;;;5121331;28;20218;-66
2021/09/29 09:34:10;;;;;;;9.17;6.90;;;20.10;99.90;20.70;97052.00;;;;5115854;27;20202;-66
2021/09/29 09:37:00;;;;;;;10.03;6.57;;;20.20;99.90;20.80;97053.00;;;;5119054;27;20214;-66
2021/09/29 09:39:49;;;;;;;9.57;6.33;;;20.20;99.90;21.20;97055.00;;;;5127903;27;20201;-66
2021/09/29 09:42:42;;;;;;;10.63;6.30;;;20.40;99.90;21.30;97063.00;;;;5124266;27;20240;-66
2021/09/29 09:45:43;;;;;;;11.27;5.90;;;20.60;99.90;21.50;97045.00;;;;5117935;27;20218;-66
2021/09/29 09:48:33;;;;;;;9.00;6.80;;;20.80;99.90;22.20;97041.00;;;;5122810;27;20206;-66
2021/09/29 09:51:22;;;;;;;8.00;6.33;;;21.00;99.90;22.90;97036.00;;;;5125391;27;20229;-66
2021/09/29 09:54:12;;;;;;;7.93;6.60;;;21.50;99.90;23.00;97054.00;;;;5129658;27;20201;-66
2021/09/29 09:57:01;;;;;;;7.20;6.23;;;21.80;99.90;22.80;97056.00;;;;5117700;27;20209;-66
2021/09/29 09:59:52;;;;;;;10.87;6.77;;;22.00;99.90;22.50;97048.00;;;;5114618;27;20233;-66
2021/09/29 10:02:43;;;;;;;6.03;5.33;;;22.10;99.90;22.70;97050.00;;;;5117008;27;20221;-66
2021/09/29 10:05:32;;;;;;;9.13;5.90;;;22.10;99.90;22.70;97061.00;;;;5115253;27;20621;-66
2021/09/29 10:08:26;;;;;;;7.13;5.60;;;22.10;99.90;22.60;97056.00;;;;5122423;27;20213;-66
2021/09/29 10:11:20;;;;;;;6.20;5.60;;;22.10;99.90;22.80;97058.00;;;;5120057;27;20726;-66
2021/09/29 10:23:52;;;;;;;10.67;6.70;;;22.30;99.90;23.20;97046.00;;;;5120318;27;20807;-66
2021/09/29 10:26:42;;;;;;;6.07;5.17;;;22.50;99.90;23.60;97036.00;;;;5123628;27;20206;-66
2021/09/29 10:29:39;;;;;;;7.40;5.33;;;22.70;99.90;24.10;97026.00;;;;5111599;27;20222;-66
2021/09/29 10:32:31;;;;;;;7.67;5.50;;;23.00;99.90;24.70;97027.00;;;;5121309;27;20217;-66
2021/09/29 10:35:34;;;;;;;7.57;5.53;;;23.40;99.90;24.30;97048.00;;;;5115578;27;20659;-66
2021/09/29 10:41:52;;;;;;;9.63;5.80;;;23.60;99.90;23.40;97048.00;;;;5117028;27;20226;-66
2021/09/29 10:45:28;;;;;;;6.53;4.77;;;23.40;99.90;23.20;97055.00;;;;5110831;27;20211;-66
2021/09/29 11:05:06;;;;;;;4.37;3.93;;;22.00;99.90;22.00;97056.00;;;;5110531;27;20202;-65
2021/09/29 11:08:17;;;;;;;5.97;3.67;;;21.80;99.90;21.80;97060.00;;;;5110966;27;20206;-64
2021/09/29 11:29:49;;;;;;;3.63;3.33;;;21.00;99.90;21.10;97060.00;;;;5106727;27;20298;-64
2021/09/29 11:32:46;;;;;;;4.03;3.43;;;20.90;99.90;21.10;97050.00;;;;5123629;27;20230;-64
2021/09/29 11:35:48;;;;;;;8.23;3.60;;;20.90;99.90;20.80;97059.00;;;;5110463;27;20249;-64
2021/09/29 12:09:54;;;;;;;4.50;3.23;;;20.40;99.90;20.50;97079.00;;;;5119393;27;20212;-65
2021/09/29 12:12:51;;;;;;;5.23;3.27;;;20.40;99.90;20.30;97077.00;;;;5122774;27;20241;-65
2021/09/29 12:15:46;;;;;;;3.33;2.77;;;20.30;99.90;20.30;97081.00;;;;5126408;27;20201;-65
2021/09/29 12:18:36;;;;;;;2.60;2.40;;;20.20;99.90;20.10;97075.00;;;;5126195;27;20206;-65
2021/09/29 12:21:43;;;;;;;2.70;2.50;;;20.10;99.90;20.10;97082.00;;;;5113089;27;20218;-65
2021/09/29 12:24:36;;;;;;;3.73;3.27;;;20.00;99.90;19.90;97081.00;;;;5109030;27;20198;-65
2021/09/29 12:27:33;;;;;;;2.70;2.50;;;19.90;99.90;19.30;97076.00;;;;5114090;27;20194;-65
2021/09/29 12:30:40;;;;;;;3.27;2.97;;;19.70;99.90;19.30;97079.00;;;;5110658;27;20521;-64
2021/09/29 12:33:47;;;;;;;4.20;2.80;;;19.50;99.90;19.20;97085.00;;;;5110902;27;20202;-64
2021/09/29 12:36:38;;;;;;;2.70;2.03;;;19.40;99.90;19.00;97082.00;;;;5106159;28;20198;-66
2021/09/29 12:39:31;;;;;;;1.80;1.67;;;19.20;99.90;18.80;97094.00;;;;5120286;27;20216;-66
2021/09/29 12:42:30;;;;;;;2.13;1.80;;;19.10;99.90;18.70;97100.00;;;;5114668;27;20716;-65
2021/09/29 12:45:26;;;;;;;2.47;2.00;;;18.90;99.90;18.50;97100.00;;;;5116202;28;20213;-66
2021/09/29 12:48:25;;;;;;;2.13;1.87;;;18.80;99.90;18.40;97107.00;;;;5112339;28;20201;-67
2021/09/29 12:51:15;;;;;;;2.20;2.00;;;18.60;99.90;18.30;97093.00;;;;5116107;28;20229;-67
2021/09/29 12:54:06;;;;;;;3.53;2.20;;;18.50;99.90;18.50;97103.00;;;;5105231;28;20202;-66
2021/09/29 12:56:54;;;;;;;2.40;2.10;;;18.50;99.90;18.70;97096.00;;;;5106936;28;20213;-65
2021/09/29 12:59:43;;;;;;;4.43;2.53;;;18.50;99.90;18.70;97098.00;;;;5106704;28;20584;-66
2021/09/29 13:02:32;;;;;;;3.87;3.03;;;18.50;99.90;18.60;97098.00;;;;5124028;28;20696;-67
2021/09/29 13:05:21;;;;;;;2.30;2.10;;;18.50;99.90;18.30;97098.00;;;;5113686;28;20617;-67
2021/09/29 13:08:12;;;;;;;2.80;2.60;;;18.50;99.90;18.60;97092.00;;;;5114634;27;20677;-66
2021/09/29 13:11:01;;;;;;;1.87;1.70;;;18.50;99.90;18.70;97106.00;;;;5125789;27;20237;-66
2021/09/29 13:13:49;;;;;;;3.53;2.40;;;18.50;99.90;18.80;97105.00;;;;5116013;27;20471;-66
2021/09/29 13:16:38;;;;;;;3.10;2.00;;;18.50;99.90;18.60;97122.00;;;;5105887;27;20199;-66
2021/09/29 13:19:31;;;;;;;3.87;1.97;;;18.50;99.90;18.50;97125.00;;;;5107085;28;20195;-66
2021/09/29 13:22:22;;;;;;;3.93;2.00;;;18.50;99.90;18.30;97140.00;;;;5115336;27;20226;-66
2021/09/29 13:37:40;;;;;;;2.13;1.90;;;17.80;99.90;17.50;97155.00;;;;5122386;27;20271;-65
2021/09/29 13:40:30;;;;;;;4.60;2.30;;;17.70;99.90;17.40;97154.00;;;;5107242;27;20199;-66
2021/09/29 13:43:19;;;;;;;2.30;2.10;;;17.60;99.90;17.20;97164.00;;;;5126970;27;20194;-67
2021/09/29 13:46:09;;;;;;;2.33;1.73;;;17.50;99.90;17.20;97165.00;;;;5118562;27;20207;-65
2021/09/29 13:48:59;;;;;;;1.80;1.70;;;17.30;99.90;17.10;97174.00;;;;5124240;27;20553;-67
2021/09/29 13:51:51;;;;;;;2.77;2.47;;;17.30;99.90;17.00;97171.00;;;;5118705;27;20234;-66
2021/09/29 13:54:41;;;;;;;6.20;2.60;;;17.20;99.90;17.00;97179.00;;;;5116225;27;20204;-66
2021/09/29 13:57:36;;;;;;;2.60;2.40;;;17.10;99.90;16.70;97184.00;;;;5118725;27;20199;-67
2021/09/29 14:00:30;;;;;;;3.40;3.10;;;17.00;99.90;16.70;97185.00;;;;5114402;27;20212;-66
2021/09/29 14:03:41;;;;;;;3.50;3.20;;;16.90;99.90;16.70;97190.00;;;;5119672;27;20194;-66
2021/09/29 14:28:42;;;;;;;1.70;1.60;;;16.60;99.90;16.80;97134.00;;;;5109416;27;20206;-66
2021/09/29 14:31:36;;;;;;;3.37;2.00;;;16.70;99.90;16.70;97137.00;;;;5109225;27;20222;-66
2021/09/29 14:34:26;;;;;;;3.03;1.93;;;16.70;99.90;16.40;97123.00;;;;5113848;27;20202;-65
2021/09/29 14:37:15;;;;;;;9.10;2.27;;;16.70;99.90;16.60;97132.00;;;;5124093;27;20202;-66
2021/09/29 14:40:08;;;;;;;2.10;1.80;;;16.70;99.90;16.80;97137.00;;;;5118848;27;20201;-66
2021/09/29 14:42:56;;;;;;;2.10;1.90;;;16.80;99.90;17.40;97113.00;;;;5112751;27;20580;-66
2021/09/29 14:45:48;;;;;;;1.80;1.67;;;17.00;99.90;18.90;97071.00;;;;5108231;27;20209;-67
2021/09/29 14:48:37;;;;;;;4.77;1.50;;;17.50;99.90;20.70;97077.00;;;;5116607;27;20210;-68
2021/09/29 14:51:26;;;;;;;2.03;1.70;;;18.70;99.90;22.40;97075.00;;;;5117147;27;20229;-65
2021/09/29 14:54:15;;;;;;;1.77;1.60;;;20.10;99.90;23.50;97126.00;;;;5115971;27;20201;-68
2021/09/29 14:57:10;;;;;;;1.40;1.30;;;21.40;99.90;24.30;97083.00;;;;5109522;27;20664;-65
2021/09/29 14:59:59;;;;;;;1.70;1.20;;;22.70;99.90;24.80;97089.00;;;;5120359;27;20202;-65
2021/09/29 15:02:49;;;;;;;2.03;1.47;;;23.90;99.90;24.70;97116.00;;;;5122279;27;20223;-66